Trinidad, Bolivia
Current Conditions -  °F | °C
As of 5:00 AM on Saturday 25 Oct 2014 (Local Time) from SLTR Reporting Station
Haze Haze  
Wind Chill: 72°   Ceiling: Unl
Heat Index: 72°   Visibility: 2.5mi
Dew Point: 72°   Wind: 3mph
Humidity: 100%   Direction: 350°N
Pressure: 29.83"   Gusts: NA
Location:  14.84°S, 64.91°W
Report Text: SLTR 250900Z 35003KT 4000 BR NSC 22/22 Q1010
Loading
Personal Weather Stations






























Interactive Weather Map
Tropical Storm Tracking
New forecast layout! Learn more

10-Day Weather Forecast

Advertisements
Track Severe Weather on mobile